Huvudsida
METAR-TAF:

METAR-TAF

Flygplatser :

Sharm el-Sheikhs internationella flygplats

Sharm el-Sheikh, Egypten

latitud: 27-58N, longitud: 034-23E, höjd: 50 m

Aktuellt väderrapport

Denna rapport gjordes för 1 timme och 7 minuter sedan, klockan 13:00 UTC
Vind 6 kt från nord/nordost
Temperatur 39°C
Fuktighet 38%
Tryck 1004 hPa
Sikt 10 km eller mer
Inga moln under 1 500 m eller inga cumulonimbus

METAR: HESH 241300Z 03006KT CAVOK 39/22 Q1004 NOSIG

Tid: 16:07 (14:07 UTC)

Väderprognos

Denna rapport gjordes för 2 timmar och 57 minuter sedan, klockan 11:10 UTC
Prognos gäller från 24 kl. 12 UTC till 25 kl. 18 UTC
Vind 14 kt från nord/nordost
Sikt 10 km eller mer
Inga moln under 1 500 m eller inga cumulonimbus

TAF: HESH 241110Z 2412/2518 02014KT CAVOK

Aktuella väderrapporter och prognoser från 4000 flygplatser (METAR- och TAF-rapporter).

De tillgängliga stationerna syns som gula och röda prickar på kartan.

För musen över prickarna för att se namnen på stationerna.

Klicka sedan för att få väderrapporter och prognoser.

För att ändra kartan: Klicka på de gröna knapparna med ett svart kors på för att zooma in; den gröna knappen med ett streck på för att zooma ut; eller på de gröna pilarna för angränsande kartor.


METAR-TAF: